createdAt,value
2023-03-16T00:00:43.145Z,10.90
2023-03-16T00:03:47.403Z,9.83
2023-03-16T00:06:51.547Z,9.20
2023-03-16T00:09:56.920Z,8.93
2023-03-16T00:13:03.064Z,8.67
2023-03-16T00:16:08.138Z,8.57
2023-03-16T00:19:12.221Z,7.83
2023-03-16T00:22:17.382Z,7.37
2023-03-16T00:25:24.687Z,8.60
2023-03-16T00:28:30.482Z,7.27
2023-03-16T00:31:35.027Z,7.80
2023-03-16T00:34:40.021Z,7.30
2023-03-16T00:37:44.648Z,5.60
2023-03-16T00:40:51.822Z,6.23
2023-03-16T00:43:55.831Z,6.43
2023-03-16T00:46:59.868Z,6.80
2023-03-16T00:50:04.402Z,6.47
2023-03-16T00:53:08.530Z,6.47
2023-03-16T00:56:14.886Z,6.27
2023-03-16T00:59:20.405Z,6.87
2023-03-16T01:02:24.982Z,6.47
2023-03-16T01:05:29.151Z,6.47
2023-03-16T01:08:33.549Z,6.00
2023-03-16T01:11:40.056Z,6.43
2023-03-16T01:14:46.242Z,6.50
2023-03-16T01:17:50.185Z,6.33
2023-03-16T01:20:54.364Z,6.20
2023-03-16T01:24:01.612Z,5.80
2023-03-16T01:27:08.103Z,6.23
2023-03-16T01:30:14.001Z,6.90
2023-03-16T01:33:18.135Z,5.37
2023-03-16T01:36:22.835Z,4.40
2023-03-16T01:39:31.292Z,2.40
2023-03-16T01:42:46.822Z,3.00
2023-03-16T01:46:21.895Z,3.53
2023-03-16T01:49:30.420Z,2.10
2023-03-16T01:52:39.573Z,2.60
2023-03-16T01:55:44.588Z,1.87
2023-03-16T01:58:51.584Z,1.33
2023-03-16T02:01:56.905Z,2.17
2023-03-16T02:05:07.530Z,1.93
2023-03-16T02:08:13.101Z,1.90
2023-03-16T02:11:19.207Z,2.50
2023-03-16T02:14:33.559Z,2.10
2023-03-16T02:17:39.030Z,2.07
2023-03-16T02:20:52.686Z,1.93
2023-03-16T02:23:58.399Z,2.00
2023-03-16T02:27:06.418Z,1.70
2023-03-16T02:30:17.348Z,1.90
2023-03-16T02:33:36.106Z,2.03
2023-03-16T02:36:42.793Z,2.30
2023-03-16T02:39:46.839Z,2.27
2023-03-16T02:43:03.092Z,2.27
2023-03-16T02:46:12.338Z,2.67
2023-03-16T02:49:22.257Z,2.53
2023-03-16T02:52:26.592Z,2.57
2023-03-16T02:55:30.763Z,2.20
2023-03-16T02:58:35.124Z,1.47
2023-03-16T03:01:44.278Z,1.77
2023-03-16T03:04:48.387Z,2.00
2023-03-16T03:07:52.857Z,2.30
2023-03-16T03:10:57.635Z,1.47
2023-03-16T03:14:01.751Z,2.30
2023-03-16T03:17:08.962Z,1.97
2023-03-16T03:20:17.236Z,1.60
2023-03-16T03:23:21.271Z,3.03
2023-03-16T03:26:25.342Z,1.63
2023-03-16T03:29:34.827Z,2.77
2023-03-16T03:32:40.786Z,2.00
2023-03-16T03:35:44.960Z,2.47
2023-03-16T03:38:50.001Z,2.23
2023-03-16T03:41:56.311Z,2.40
2023-03-16T03:45:03.911Z,1.77
2023-03-16T03:48:09.442Z,1.90
2023-03-16T03:51:13.480Z,2.30
2023-03-16T03:54:43.854Z,2.17
2023-03-16T03:57:51.783Z,2.13
2023-03-16T04:00:55.814Z,1.80
2023-03-16T04:04:01.329Z,1.90
2023-03-16T04:07:05.452Z,2.03
2023-03-16T04:10:11.014Z,2.17
2023-03-16T04:13:18.171Z,2.60
2023-03-16T04:16:22.757Z,1.90
2023-03-16T04:19:32.073Z,2.17
2023-03-16T04:22:37.435Z,1.97
2023-03-16T04:25:41.676Z,2.20
2023-03-16T04:28:46.208Z,2.23
2023-03-16T04:31:54.233Z,1.60
2023-03-16T04:35:02.296Z,1.53
2023-03-16T04:38:21.294Z,1.60
2023-03-16T04:41:34.819Z,1.50
2023-03-16T04:45:05.936Z,1.90
2023-03-16T04:48:10.914Z,1.90
2023-03-16T04:51:17.107Z,1.53
2023-03-16T04:54:33.582Z,1.60
2023-03-16T04:57:37.814Z,1.70
2023-03-16T05:00:42.339Z,1.40
2023-03-16T05:03:54.644Z,1.80
2023-03-16T05:07:00.396Z,1.00
2023-03-16T05:10:11.127Z,1.10
2023-03-16T05:13:16.169Z,0.90
2023-03-16T05:16:22.632Z,1.33
2023-03-16T05:19:27.845Z,1.30
2023-03-16T05:22:33.368Z,0.80
2023-03-16T05:25:52.260Z,0.70
2023-03-16T05:28:59.923Z,1.10
2023-03-16T05:32:07.212Z,0.90
2023-03-16T05:35:13.969Z,1.07
2023-03-16T05:38:20.007Z,1.20
2023-03-16T05:41:25.498Z,0.60
2023-03-16T05:44:45.233Z,1.00
2023-03-16T05:47:54.984Z,1.07
2023-03-16T05:50:59.109Z,0.90
2023-03-16T05:54:07.503Z,0.80
2023-03-16T05:57:19.967Z,1.10
2023-03-16T06:00:30.433Z,1.10
2023-03-16T06:03:49.379Z,0.90
2023-03-16T06:06:57.788Z,0.70
2023-03-16T06:10:07.172Z,0.80
2023-03-16T06:13:12.136Z,0.53
2023-03-16T06:16:17.342Z,0.97
2023-03-16T06:19:22.167Z,1.10
2023-03-16T06:22:31.910Z,1.00
2023-03-16T06:25:40.593Z,0.83
2023-03-16T06:28:46.788Z,0.77
2023-03-16T06:31:52.916Z,1.00
2023-03-16T06:34:59.904Z,0.80
2023-03-16T06:38:04.227Z,0.83
2023-03-16T06:41:33.459Z,0.60
2023-03-16T06:44:37.926Z,0.90
2023-03-16T06:47:46.673Z,1.20
2023-03-16T06:50:50.985Z,0.77
2023-03-16T06:54:00.254Z,1.00
2023-03-16T06:57:06.344Z,0.70
2023-03-16T07:00:12.907Z,0.80
2023-03-16T07:03:17.681Z,0.90
2023-03-16T07:06:27.015Z,1.20
2023-03-16T07:09:32.116Z,1.17
2023-03-16T07:12:37.920Z,1.10
2023-03-16T07:15:42.306Z,1.10
2023-03-16T07:18:48.067Z,1.03
2023-03-16T07:21:54.375Z,1.13
2023-03-16T07:24:59.789Z,1.30
2023-03-16T07:28:07.285Z,1.13
2023-03-16T07:31:17.090Z,1.13
2023-03-16T07:34:22.787Z,1.53
2023-03-16T07:37:32.705Z,0.80
2023-03-16T07:40:39.736Z,0.90
2023-03-16T07:43:52.187Z,1.00
2023-03-16T07:47:00.967Z,1.20
2023-03-16T07:50:09.330Z,0.97
2023-03-16T07:53:16.173Z,1.40
2023-03-16T07:56:23.079Z,0.57
2023-03-16T07:59:33.173Z,1.67
2023-03-16T08:02:38.691Z,1.23
2023-03-16T08:05:44.539Z,0.87
2023-03-16T08:08:52.280Z,1.10
2023-03-16T08:12:04.315Z,1.00
2023-03-16T08:15:13.462Z,1.40
2023-03-16T08:18:18.000Z,1.03
2023-03-16T08:21:23.261Z,1.40
2023-03-16T08:24:27.618Z,1.40
2023-03-16T08:27:32.213Z,1.10
2023-03-16T08:30:48.842Z,1.00
2023-03-16T08:34:04.952Z,0.87
2023-03-16T08:37:14.528Z,1.83
2023-03-16T08:40:22.751Z,0.90
2023-03-16T08:43:52.271Z,0.90
2023-03-16T08:46:58.191Z,0.80
2023-03-16T08:50:02.722Z,1.33
2023-03-16T08:53:07.211Z,1.20
2023-03-16T08:56:14.766Z,1.00
2023-03-16T08:59:29.043Z,1.37
2023-03-16T09:02:38.906Z,0.80
2023-03-16T09:05:42.974Z,0.93
2023-03-16T09:08:48.194Z,0.80
2023-03-16T09:11:52.554Z,0.93
2023-03-16T09:14:56.799Z,0.80
2023-03-16T09:18:04.227Z,0.80
2023-03-16T09:21:11.060Z,0.90
2023-03-16T09:24:15.633Z,1.00
2023-03-16T09:27:21.004Z,1.10
2023-03-16T09:30:25.277Z,0.93
2023-03-16T09:33:32.393Z,1.10
2023-03-16T09:36:36.500Z,0.80
2023-03-16T09:39:41.048Z,1.00
2023-03-16T09:42:55.419Z,1.20
2023-03-16T09:46:10.159Z,0.93
2023-03-16T09:49:21.430Z,0.90
2023-03-16T09:52:32.344Z,0.60
2023-03-16T09:55:39.278Z,0.77
2023-03-16T09:58:44.269Z,0.90
2023-03-16T10:02:07.651Z,1.30
2023-03-16T10:05:14.557Z,1.30
2023-03-16T10:08:25.015Z,1.63
2023-03-16T10:11:33.738Z,1.03
2023-03-16T10:14:43.425Z,0.87
2023-03-16T10:17:52.986Z,1.37
2023-03-16T10:20:59.175Z,1.10
2023-03-16T10:24:06.460Z,1.00
2023-03-16T10:27:18.796Z,1.10
2023-03-16T10:30:28.590Z,1.13
2023-03-16T10:33:35.013Z,0.73
2023-03-16T10:36:44.132Z,1.20
2023-03-16T10:39:50.624Z,1.10
2023-03-16T10:42:55.523Z,1.33
2023-03-16T10:46:03.888Z,0.80
2023-03-16T10:49:19.479Z,1.30
2023-03-16T10:52:31.803Z,1.10
2023-03-16T10:55:45.988Z,1.07
2023-03-16T10:58:50.584Z,0.83
2023-03-16T11:01:54.749Z,1.40
2023-03-16T11:04:59.395Z,0.90
2023-03-16T11:08:11.540Z,1.27
2023-03-16T11:11:20.545Z,1.20
2023-03-16T11:14:28.609Z,1.17
2023-03-16T11:17:40.192Z,1.00
2023-03-16T11:20:44.546Z,1.00
2023-03-16T11:23:53.104Z,1.17
2023-03-16T11:27:00.420Z,1.10
2023-03-16T11:30:12.945Z,1.47
2023-03-16T11:33:17.290Z,1.17
2023-03-16T11:36:38.050Z,1.57
2023-03-16T11:39:54.439Z,1.67
2023-03-16T11:43:07.528Z,1.00
2023-03-16T11:46:16.307Z,1.10
2023-03-16T11:49:44.919Z,1.47
2023-03-16T11:53:02.383Z,1.10
2023-03-16T11:56:18.239Z,1.50
2023-03-16T11:59:55.401Z,1.40
2023-03-16T12:03:43.906Z,1.00
2023-03-16T12:07:01.875Z,1.43
2023-03-16T12:10:19.108Z,1.40
2023-03-16T12:13:38.074Z,1.80
2023-03-16T12:16:49.893Z,2.00
2023-03-16T12:19:59.252Z,1.50
2023-03-16T12:23:08.241Z,1.70
2023-03-16T12:26:15.056Z,1.40
2023-03-16T12:29:30.990Z,1.40
2023-03-16T12:32:45.664Z,1.63
2023-03-16T12:35:57.623Z,2.13
2023-03-16T12:39:06.847Z,1.60
2023-03-16T12:42:26.336Z,1.80
2023-03-16T12:45:42.399Z,1.53
2023-03-16T12:48:50.821Z,1.67
2023-03-16T12:52:02.463Z,1.77
2023-03-16T12:55:15.123Z,1.70
2023-03-16T12:58:20.082Z,1.80
2023-03-16T13:01:30.066Z,1.80
2023-03-16T13:04:37.108Z,2.17
2023-03-16T13:07:49.612Z,1.33
2023-03-16T13:11:03.709Z,1.40
2023-03-16T13:14:11.268Z,1.33
2023-03-16T13:17:30.848Z,1.70
2023-03-16T13:20:36.574Z,1.67
2023-03-16T13:24:16.016Z,1.30
2023-03-16T13:27:24.952Z,1.30
2023-03-16T13:30:31.856Z,1.40
2023-03-16T13:33:41.179Z,1.60
2023-03-16T13:36:47.094Z,1.73
2023-03-16T13:39:55.820Z,1.57
2023-03-16T13:43:01.116Z,1.50
2023-03-16T13:46:16.178Z,1.50
2023-03-16T13:49:22.206Z,1.80
2023-03-16T13:52:29.765Z,1.47
2023-03-16T13:55:35.968Z,2.17
2023-03-16T13:58:40.966Z,1.77
2023-03-16T14:01:48.817Z,3.07
2023-03-16T14:04:55.429Z,2.10
2023-03-16T14:08:01.296Z,1.90
2023-03-16T14:11:05.940Z,1.80
2023-03-16T14:14:17.107Z,1.17
2023-03-16T14:17:23.584Z,1.90
2023-03-16T14:20:31.547Z,2.03
2023-03-16T14:23:39.951Z,2.17
2023-03-16T14:26:46.147Z,1.77
2023-03-16T14:29:57.060Z,2.10
2023-03-16T14:33:02.618Z,2.07
2023-03-16T14:36:14.723Z,2.53
2023-03-16T14:39:22.550Z,2.47
2023-03-16T14:42:30.312Z,1.97
2023-03-16T14:45:36.170Z,2.00
2023-03-16T14:48:41.510Z,1.53
2023-03-16T14:51:49.761Z,1.80
2023-03-16T14:54:55.545Z,2.10
2023-03-16T14:58:00.036Z,1.83
2023-03-16T15:01:05.210Z,1.80
2023-03-16T15:04:09.783Z,2.03
2023-03-16T15:07:25.652Z,1.70
2023-03-16T15:10:32.114Z,2.30
2023-03-16T15:13:53.169Z,2.07
2023-03-16T15:16:57.747Z,2.17
2023-03-16T15:20:02.342Z,1.60
2023-03-16T15:23:08.221Z,2.27
2023-03-16T15:26:13.168Z,2.37
2023-03-16T15:29:20.133Z,2.77
2023-03-16T15:32:24.400Z,2.40
2023-03-16T15:35:29.014Z,2.40
2023-03-16T15:38:37.059Z,2.03
2023-03-16T15:41:47.520Z,2.43
2023-03-16T15:44:52.212Z,2.20
2023-03-16T15:47:56.903Z,2.20
2023-03-16T15:51:03.164Z,1.97
2023-03-16T15:54:10.814Z,2.13
2023-03-16T15:57:15.246Z,2.30
2023-03-16T16:00:31.479Z,2.53
2023-03-16T16:03:35.991Z,2.80
2023-03-16T16:06:40.177Z,2.70
2023-03-16T16:09:45.851Z,2.37
2023-03-16T16:12:52.855Z,2.27
2023-03-16T16:15:58.274Z,2.03
2023-03-16T16:19:02.662Z,2.67
2023-03-16T16:22:07.201Z,2.50
2023-03-16T16:25:15.251Z,1.80
2023-03-16T16:28:22.427Z,2.13
2023-03-16T16:31:27.615Z,2.50
2023-03-16T16:34:31.853Z,2.30
2023-03-16T16:37:36.083Z,2.50
2023-03-16T16:40:46.256Z,1.67
2023-03-16T16:43:51.666Z,2.50
2023-03-16T16:46:56.503Z,2.27
2023-03-16T16:50:01.204Z,1.83
2023-03-16T16:53:20.567Z,2.13
2023-03-16T16:56:29.426Z,2.23
2023-03-16T16:59:35.473Z,1.97
2023-03-16T17:02:46.148Z,2.30
2023-03-16T17:05:50.327Z,2.10
2023-03-16T17:08:55.633Z,2.40
2023-03-16T17:12:03.157Z,2.80
2023-03-16T17:15:23.329Z,2.33
2023-03-16T17:18:27.556Z,2.70
2023-03-16T17:21:32.917Z,2.60
2023-03-16T17:24:37.655Z,2.70
2023-03-16T17:27:45.293Z,3.50
2023-03-16T17:30:49.867Z,33.70
2023-03-16T17:33:55.227Z,19.63
2023-03-16T17:36:59.341Z,3.37
2023-03-16T17:40:03.504Z,7.73
2023-03-16T17:43:16.533Z,7.83
2023-03-16T17:46:23.176Z,3.33
2023-03-16T17:49:28.800Z,2.50
2023-03-16T17:52:33.677Z,3.70
2023-03-16T17:55:39.152Z,3.30
2023-03-16T17:58:45.684Z,3.53
2023-03-16T18:01:50.109Z,3.60
2023-03-16T18:04:54.360Z,7.23
2023-03-16T18:08:01.665Z,14.43
2023-03-16T18:11:09.522Z,4.83
2023-03-16T18:14:25.009Z,2.57
2023-03-16T18:17:31.359Z,3.03
2023-03-16T18:20:37.959Z,3.07
2023-03-16T18:23:42.162Z,3.77
2023-03-16T18:26:46.471Z,10.07
2023-03-16T18:29:52.280Z,4.40
2023-03-16T18:32:57.159Z,4.80
2023-03-16T18:36:05.158Z,2.97
2023-03-16T18:39:19.247Z,4.90
2023-03-16T18:42:24.393Z,4.77
2023-03-16T18:45:31.167Z,4.87
2023-03-16T18:48:37.033Z,5.13
2023-03-16T18:51:41.431Z,7.13
2023-03-16T18:54:47.408Z,9.50
2023-03-16T18:57:56.644Z,3.53
2023-03-16T19:01:02.962Z,3.87
2023-03-16T19:04:07.182Z,9.50
2023-03-16T19:07:25.919Z,5.70
2023-03-16T19:10:33.470Z,4.97
2023-03-16T19:13:37.443Z,4.43
2023-03-16T19:16:43.374Z,3.73
2023-03-16T19:19:47.758Z,7.10
2023-03-16T19:22:54.659Z,14.93
2023-03-16T19:25:59.567Z,7.30
2023-03-16T19:29:05.090Z,8.03
2023-03-16T19:32:17.904Z,9.57
2023-03-16T19:35:22.600Z,4.83
2023-03-16T19:38:27.300Z,15.30
2023-03-16T19:41:34.140Z,7.03
2023-03-16T19:44:38.352Z,5.90
2023-03-16T19:47:43.931Z,6.20
2023-03-16T19:50:48.480Z,4.17
2023-03-16T19:53:53.183Z,13.73
2023-03-16T19:57:00.043Z,11.77
2023-03-16T20:00:06.883Z,8.93
2023-03-16T20:03:13.670Z,3.60
2023-03-16T20:06:20.216Z,6.50
2023-03-16T20:09:24.360Z,3.53
2023-03-16T20:12:30.307Z,4.60
2023-03-16T20:15:35.749Z,3.70
2023-03-16T20:18:41.291Z,3.50
2023-03-16T20:21:45.400Z,6.27
2023-03-16T20:24:51.512Z,4.10
2023-03-16T20:27:58.404Z,3.20
2023-03-16T20:31:02.731Z,3.90
2023-03-16T20:34:21.222Z,3.90
2023-03-16T20:37:27.435Z,3.23
2023-03-16T20:40:32.191Z,3.90
2023-03-16T20:43:37.732Z,4.40
2023-03-16T20:46:42.398Z,4.43
2023-03-16T20:49:48.036Z,3.00
2023-03-16T20:52:52.440Z,5.30
2023-03-16T20:55:58.158Z,3.27
2023-03-16T20:59:04.069Z,5.93
2023-03-16T21:02:25.765Z,4.83
2023-03-16T21:05:31.689Z,4.10
2023-03-16T21:08:36.228Z,5.80
2023-03-16T21:11:40.839Z,7.00
2023-03-16T21:14:45.043Z,7.17
2023-03-16T21:17:52.315Z,5.10
2023-03-16T21:20:58.805Z,5.00
2023-03-16T21:24:03.608Z,5.17
2023-03-16T21:27:07.836Z,3.87
2023-03-16T21:30:21.327Z,4.67
2023-03-16T21:33:31.499Z,2.90
2023-03-16T21:36:37.207Z,4.33
2023-03-16T21:39:42.066Z,3.90
2023-03-16T21:42:47.127Z,3.60
2023-03-16T21:45:52.379Z,2.93
2023-03-16T21:48:57.334Z,4.20
2023-03-16T21:52:03.077Z,4.00
2023-03-16T21:55:17.483Z,3.40
2023-03-16T21:58:25.258Z,2.23
2023-03-16T22:01:32.299Z,3.70
2023-03-16T22:04:37.104Z,4.30
2023-03-16T22:07:42.851Z,4.20
2023-03-16T22:10:47.832Z,4.10
2023-03-16T22:13:53.088Z,4.07
2023-03-16T22:16:58.050Z,4.30
2023-03-16T22:20:02.263Z,5.13
2023-03-16T22:23:08.029Z,4.50
2023-03-16T22:26:18.084Z,3.83
2023-03-16T22:29:25.621Z,3.73
2023-03-16T22:32:29.695Z,4.43
2023-03-16T22:35:37.265Z,2.87
2023-03-16T22:38:44.295Z,3.90
2023-03-16T22:41:48.903Z,4.90
2023-03-16T22:44:53.189Z,5.07
2023-03-16T22:47:58.776Z,4.60
2023-03-16T22:51:05.565Z,4.67
2023-03-16T22:54:17.703Z,4.33
2023-03-16T22:57:22.138Z,4.17
2023-03-16T23:00:29.122Z,4.50
2023-03-16T23:03:33.150Z,4.10
2023-03-16T23:06:37.561Z,3.90
2023-03-16T23:09:43.425Z,4.03
2023-03-16T23:12:48.086Z,4.80
2023-03-16T23:15:53.802Z,4.20
2023-03-16T23:18:58.156Z,5.03
2023-03-16T23:22:03.872Z,4.30
2023-03-16T23:25:10.088Z,4.50
2023-03-16T23:28:17.221Z,4.00
2023-03-16T23:31:22.399Z,4.57
2023-03-16T23:34:27.859Z,4.40
2023-03-16T23:37:32.231Z,4.80
2023-03-16T23:40:39.954Z,3.43
2023-03-16T23:43:47.020Z,4.33
2023-03-16T23:46:51.380Z,4.30
2023-03-16T23:49:55.640Z,3.53
2023-03-16T23:53:00.221Z,4.40
2023-03-16T23:56:06.157Z,4.33
2023-03-16T23:59:10.296Z,4.70
